Time;durP1;ratioP1;P1;durP2;ratioP2;P2;SDS_P1;SDS_P2;PMS_P1;PMS_P2;Temp;Humidity;BMP_temperature;BMP_pressure;BME280_temperature;BME280_humidity;BME280_pressure;Samples;Min_cycle;Max_cycle;Signal;HPM_P1;HPM_P2
2022/04/21 06:00:04;;;;;;;14.80;6.75;;;18.00;64.80;;;;;;4812566;24;20115;-58
2022/04/21 06:02:30;;;;;;;13.82;7.15;;;18.40;79.20;;;;;;4723750;30;20128;-58
2022/04/21 06:04:59;;;;;;;11.43;6.78;;;18.30;67.50;;;;;;4723352;30;20304;-57
2022/04/21 06:07:25;;;;;;;12.23;6.50;;;;;;;;;;4724663;30;20056;-58
2022/04/21 06:09:51;;;;;;;11.82;6.20;;;;;;;;;;4728546;30;20082;-58
2022/04/21 06:12:17;;;;;;;7.97;6.03;;;18.40;70.60;;;;;;4732255;30;20052;-58
2022/04/21 06:14:45;;;;;;;12.35;5.95;;;18.80;60.70;;;;;;4725055;30;20071;-57
2022/04/21 06:17:10;;;;;;;13.02;6.30;;;18.90;68.90;;;;;;4729699;30;20502;-58
2022/04/21 06:19:37;;;;;;;12.75;5.90;;;;;;;;;;4727089;30;20056;-58
2022/04/21 06:22:03;;;;;;;8.73;5.80;;;;;;;;;;4742191;30;20049;-58
2022/04/21 06:24:29;;;;;;;10.07;5.70;;;18.50;66.80;;;;;;4724294;30;20048;-58
2022/04/21 06:26:55;;;;;;;8.70;5.60;;;19.00;65.90;;;;;;4694420;30;20450;-58
2022/04/21 06:29:20;;;;;;;8.98;5.72;;;19.30;66.20;;;;;;4734085;30;20087;-58
2022/04/21 06:31:46;;;;;;;9.27;5.63;;;19.60;59.40;;;;;;4730960;30;20143;-58
2022/04/21 06:34:12;;;;;;;12.38;5.72;;;19.30;65.00;;;;;;4732844;30;20048;-58
2022/04/21 06:36:38;;;;;;;8.65;5.40;;;;;;;;;;4721409;30;20053;-57
2022/04/21 06:39:04;;;;;;;10.88;5.13;;;19.80;63.10;;;;;;4724508;30;20112;-58
2022/04/21 06:41:30;;;;;;;7.18;5.10;;;;;;;;;;4718012;30;20466;-58
2022/04/21 06:49:25;;;;;;;10.18;4.95;;;;;;;;;;4723384;30;20049;-58
2022/04/21 06:51:50;;;;;;;7.90;4.70;;;19.00;63.90;;;;;;4729186;30;20102;-58
2022/04/21 06:54:16;;;;;;;9.00;4.75;;;18.60;63.20;;;;;;4731613;30;20169;-58
2022/04/21 06:56:43;;;;;;;7.13;4.43;;;18.50;55.30;;;;;;4719030;30;20070;-58
2022/04/21 06:59:09;;;;;;;10.60;5.00;;;;;;;;;;4726594;30;20508;-58
2022/04/21 07:01:36;;;;;;;8.00;4.75;;;;;;;;;;4731144;30;20053;-58
2022/04/21 07:04:02;;;;;;;7.50;4.55;;;18.80;62.20;;;;;;4741876;30;20053;-57
2022/04/21 07:06:27;;;;;;;10.60;4.28;;;19.20;62.70;;;;;;4740324;30;20476;-58
2022/04/21 07:08:53;;;;;;;11.48;4.82;;;18.20;52.70;;;;;;4734065;30;20059;-59
2022/04/21 07:11:20;;;;;;;8.07;4.18;;;18.10;63.50;;;;;;4734675;30;20110;-59
2022/04/21 07:13:46;;;;;;;6.63;4.28;;;;;;;;;;4736148;30;20456;-59
2022/04/21 07:16:12;;;;;;;8.55;4.28;;;;;;;;;;4738904;30;20472;-59
2022/04/21 07:18:38;;;;;;;8.55;4.47;;;19.70;60.70;;;;;;4741463;30;20132;-59
2022/04/21 07:21:04;;;;;;;9.77;4.35;;;20.20;48.20;;;;;;4743385;30;20140;-59
2022/04/21 07:23:30;;;;;;;6.82;4.30;;;20.60;58.20;;;;;;4717586;30;20063;-59
2022/04/21 07:25:56;;;;;;;6.25;4.00;;;20.40;58.00;;;;;;4742043;30;20052;-59
2022/04/21 07:28:21;;;;;;;6.88;4.20;;;21.10;57.40;;;;;;4747695;30;20147;-59
2022/04/21 07:30:47;;;;;;;8.23;3.80;;;20.20;57.00;;;;;;4741082;30;20233;-59
2022/04/21 07:33:14;;;;;;;7.47;4.05;;;19.80;58.20;;;;;;4746220;30;20460;-59
2022/04/21 07:35:41;;;;;;;7.95;3.90;;;;;;;;;;4738875;30;20129;-59
2022/04/21 07:38:07;;;;;;;7.95;3.40;;;18.90;50.40;;;;;;4734406;30;20459;-59
2022/04/21 07:40:33;;;;;;;7.35;3.75;;;18.60;60.10;;;;;;4745072;30;20048;-59
2022/04/21 07:43:03;;;;;;;5.57;3.80;;;;;;;;;;4749508;30;20547;-59
2022/04/21 07:45:29;;;;;;;9.18;3.70;;;18.60;61.50;;;;;;4737202;30;20079;-59
2022/04/21 07:47:55;;;;;;;9.82;3.78;;;18.10;62.20;;;;;;4748257;30;20138;-59
2022/04/21 07:50:24;;;;;;;7.03;3.53;;;17.70;63.10;;;;;;4747032;30;20132;-59
2022/04/21 07:55:37;;;;;;;8.48;3.55;;;;;;;;;;4737923;30;20044;-59
2022/04/21 07:58:03;;;;;;;4.47;3.40;;;17.00;67.10;;;;;;4735230;30;20049;-59
2022/04/21 08:00:29;;;;;;;15.50;3.75;;;;;;;;;;4731966;30;20067;-60
2022/04/21 08:02:54;;;;;;;9.38;4.22;;;16.20;66.90;;;;;;4737250;30;20064;-59
2022/04/21 08:05:21;;;;;;;7.05;3.80;;;16.10;69.00;;;;;;4739125;30;20045;-59
2022/04/21 08:07:48;;;;;;;18.75;3.75;;;15.70;69.20;;;;;;4729514;30;20056;-59
2022/04/21 08:10:14;;;;;;;6.18;3.40;;;15.90;53.40;;;;;;4718547;30;20090;-59
2022/04/21 08:12:41;;;;;;;4.45;3.30;;;15.50;53.60;;;;;;4743053;30;20060;-59
2022/04/21 08:15:08;;;;;;;6.88;3.33;;;15.60;54.20;;;;;;4734303;30;20136;-59
2022/04/21 08:17:38;;;;;;;12.32;3.33;;;15.40;53.70;;;;;;4740945;30;20055;-60
2022/04/21 08:20:09;;;;;;;24.65;3.92;;;15.50;70.40;;;;;;4747325;30;20554;-60
2022/04/21 08:22:36;;;;;;;4.13;2.95;;;15.30;54.00;;;;;;4728879;30;20126;-60
2022/04/21 08:33:16;;;;;;;8.98;3.63;;;15.10;61.60;;;;;;4734175;30;20048;-60
2022/04/21 08:35:44;;;;;;;8.85;3.60;;;;;;;;;;4716600;30;20127;-59
2022/04/21 08:38:10;;;;;;;6.20;3.65;;;15.20;72.50;;;;;;4719858;30;20059;-59
2022/04/21 08:40:37;;;;;;;11.27;3.90;;;15.00;55.80;;;;;;4737703;30;20134;-59
2022/04/21 08:43:15;;;;;;;9.07;3.80;;;15.20;56.10;;;;;;4739233;30;20150;-59
2022/04/21 08:45:45;;;;;;;6.13;3.10;;;15.10;58.40;;;;;;4738215;30;20060;-59
2022/04/21 08:48:12;;;;;;;12.05;3.67;;;15.30;56.10;;;;;;4725840;30;20069;-59
2022/04/21 08:50:39;;;;;;;5.18;3.65;;;15.20;56.00;;;;;;4747348;30;20114;-59
2022/04/21 08:53:06;;;;;;;6.30;3.28;;;15.50;71.40;;;;;;4735005;30;20551;-60
2022/04/21 08:55:32;;;;;;;9.27;3.55;;;15.50;59.70;;;;;;4745248;30;20051;-59
2022/04/21 08:57:59;;;;;;;6.38;3.60;;;15.20;56.20;;;;;;4756426;30;20126;-60
2022/04/21 09:00:25;;;;;;;8.80;3.78;;;15.20;72.30;;;;;;4745063;30;20069;-60
2022/04/21 09:02:51;;;;;;;4.43;2.97;;;;;;;;;;4741429;30;20079;-59
2022/04/21 09:05:20;;;;;;;18.23;4.03;;;15.30;72.80;;;;;;4736271;30;20048;-60
2022/04/21 09:07:50;;;;;;;10.20;3.40;;;15.30;65.80;;;;;;4726034;30;20068;-60
2022/04/21 09:10:17;;;;;;;6.05;3.50;;;14.90;73.40;;;;;;4736605;30;20056;-59
2022/04/21 09:12:48;;;;;;;5.57;3.42;;;15.00;57.80;;;;;;4730947;30;20056;-60
2022/04/21 09:15:16;;;;;;;12.43;3.97;;;15.00;73.70;;;;;;4734733;30;20052;-59
2022/04/21 09:17:47;;;;;;;8.85;3.75;;;15.20;57.90;;;;;;4745539;30;20097;-59
2022/04/21 09:20:16;;;;;;;12.15;3.85;;;15.40;58.10;;;;;;4745778;30;20063;-59
2022/04/21 09:22:54;;;;;;;7.30;3.70;;;15.50;57.50;;;;;;4740619;30;20101;-60
2022/04/21 09:25:25;;;;;;;12.52;3.75;;;15.50;72.60;;;;;;4738574;30;20059;-59
2022/04/21 09:27:52;;;;;;;6.32;3.42;;;15.40;65.90;;;;;;4723751;30;20410;-60
2022/04/21 09:30:18;;;;;;;11.48;3.60;;;15.00;71.80;;;;;;4739755;30;20067;-60
2022/04/21 09:32:58;;;;;;;5.25;3.63;;;15.70;56.50;;;;;;4741346;30;20063;-60
2022/04/21 09:35:26;;;;;;;13.52;3.67;;;15.90;64.00;;;;;;4736934;30;20052;-60
2022/04/21 09:37:54;;;;;;;5.85;3.33;;;15.70;55.90;;;;;;4738048;30;20048;-60
2022/04/21 09:40:25;;;;;;;5.97;3.50;;;15.80;56.00;;;;;;4736337;30;20071;-60
2022/04/21 09:43:02;;;;;;;8.65;3.67;;;15.60;71.20;;;;;;4740343;30;20048;-60
2022/04/21 09:48:29;;;;;;;19.60;4.25;;;15.70;70.60;;;;;;4741546;30;20079;-60
2022/04/21 09:51:07;;;;;;;4.80;3.58;;;15.90;55.50;;;;;;4737646;30;20541;-60
2022/04/21 09:53:52;;;;;;;8.50;3.63;;;16.00;55.30;;;;;;4738076;30;20053;-60
2022/04/21 09:56:19;;;;;;;6.53;3.80;;;;;;;;;;4739759;30;20416;-60
2022/04/21 09:58:46;;;;;;;11.68;3.72;;;16.10;72.00;;;;;;4739232;30;20052;-60
2022/04/21 10:01:12;;;;;;;14.32;3.80;;;;;;;;;;4739487;30;20068;-60
2022/04/21 10:03:41;;;;;;;9.25;3.60;;;16.10;54.80;;;;;;4733057;30;20058;-60
2022/04/21 10:06:07;;;;;;;7.50;3.70;;;;;;;;;;4735687;30;20056;-60
2022/04/21 10:08:34;;;;;;;12.63;4.00;;;16.10;55.20;;;;;;4732564;30;20044;-60
2022/04/21 10:11:00;;;;;;;6.57;3.75;;;;;;;;;;4714522;30;20060;-60
2022/04/21 10:13:28;;;;;;;18.73;4.00;;;15.70;73.10;;;;;;4736676;30;20388;-60
2022/04/21 10:15:53;;;;;;;19.33;4.10;;;16.20;72.20;;;;;;4745075;30;20118;-60
2022/04/21 10:18:19;;;;;;;5.82;3.60;;;16.30;72.20;;;;;;4747814;30;20151;-60
2022/04/21 10:20:46;;;;;;;16.27;3.88;;;16.40;72.20;;;;;;4736170;30;20533;-60
2022/04/21 10:23:17;;;;;;;15.27;3.80;;;16.40;54.00;;;;;;4741962;30;20048;-60
2022/04/21 10:25:43;;;;;;;8.00;4.07;;;16.70;71.00;;;;;;4750001;30;20056;-60
2022/04/21 10:28:36;;;;;;;8.80;3.95;;;16.40;53.50;;;;;;4746773;30;21613;-60
2022/04/21 10:31:35;;;;;;;8.32;3.50;;;16.50;63.40;;;;;;4748673;30;20052;-60
2022/04/21 10:34:04;;;;;;;8.98;3.80;;;16.70;71.20;;;;;;4723821;30;20057;-60
2022/04/21 10:36:47;;;;;;;19.65;4.30;;;16.60;53.50;;;;;;4734711;30;20052;-60
2022/04/21 10:39:25;;;;;;;6.60;3.88;;;16.60;70.60;;;;;;4738512;30;20142;-61
2022/04/21 10:42:14;;;;;;;5.68;3.72;;;16.60;70.80;;;;;;4734147;30;20114;-60
2022/04/21 10:44:44;;;;;;;23.13;4.25;;;16.90;53.40;;;;;;4747773;30;20416;-60
2022/04/21 10:48:01;;;;;;;9.25;4.07;;;17.20;62.00;;;;;;4743237;30;20052;-60
2022/04/21 10:50:31;;;;;;;11.15;4.00;;;16.90;71.30;;;;;;4697107;30;20065;-60
2022/04/21 10:58:34;;;;;;;9.23;3.45;;;16.40;65.40;;;;;;4704370;30;20053;-61
2022/04/21 11:01:16;;;;;;;6.60;3.90;;;17.00;51.70;;;;;;4702492;30;20550;-60
2022/04/21 11:03:44;;;;;;;5.32;3.65;;;17.30;55.10;;;;;;4686252;30;20624;-60
2022/04/21 11:06:15;;;;;;;6.95;3.65;;;17.10;73.10;;;;;;4701101;30;20507;-61
2022/04/21 11:08:41;;;;;;;9.15;3.63;;;17.20;73.60;;;;;;4710486;30;20064;-60
2022/04/21 11:11:07;;;;;;;8.00;3.70;;;17.10;65.20;;;;;;4697731;30;20423;-61
2022/04/21 11:13:48;;;;;;;9.52;3.70;;;16.90;74.30;;;;;;4702156;30;20084;-60
2022/04/21 11:16:39;;;;;;;4.78;3.00;;;17.60;71.70;;;;;;4690585;30;20053;-60
2022/04/21 11:19:45;;;;;;;7.63;3.38;;;17.70;71.10;;;;;;4702286;30;20064;-60
2022/04/21 11:22:13;;;;;;;7.57;4.00;;;17.60;66.70;;;;;;4701892;30;20053;-60
2022/04/21 11:25:01;;;;;;;8.88;4.20;;;17.20;50.70;;;;;;4734858;30;20127;-60
2022/04/21 11:27:26;;;;;;;9.30;3.67;;;17.30;58.50;;;;;;4741353;30;20056;-60
2022/04/21 11:29:58;;;;;;;8.23;3.83;;;15.50;50.70;;;;;;4738206;30;20056;-60
2022/04/21 11:32:24;;;;;;;11.00;4.15;;;;;;;;;;4719629;30;20057;-60
2022/04/21 11:35:09;;;;;;;7.90;4.30;;;17.60;72.30;;;;;;4744217;30;20040;-60
2022/04/21 11:37:54;;;;;;;8.20;4.20;;;17.40;51.20;;;;;;4743477;30;20056;-60
2022/04/21 11:40:27;;;;;;;12.50;4.30;;;17.20;54.80;;;;;;4740316;30;20067;-60
2022/04/21 11:42:54;;;;;;;10.43;4.35;;;17.40;63.30;;;;;;4745691;30;20048;-60
2022/04/21 11:45:24;;;;;;;9.63;4.60;;;17.40;60.00;;;;;;4740054;30;20052;-60
2022/04/21 11:47:50;;;;;;;15.07;4.45;;;17.80;72.70;;;;;;4744229;30;20059;-60
2022/04/21 11:50:27;;;;;;;9.35;4.28;;;17.90;62.80;;;;;;4741676;30;20137;-60
2022/04/21 11:52:54;;;;;;;8.95;4.80;;;18.00;59.20;;;;;;4746514;30;20059;-60
2022/04/21 11:55:31;;;;;;;8.05;4.28;;;17.90;72.50;;;;;;4729975;30;20149;-60
2022/04/21 11:57:57;;;;;;;13.35;4.57;;;17.90;71.60;;;;;;4736747;30;20052;-60
2022/04/21 12:08:44;;;;;;;;;;;18.30;50.20;;;;;;4750578;30;20052;-61
2022/04/21 12:11:10;;;;;;;5.60;4.00;;;18.00;67.40;;;;;;4744552;30;19930;-60
2022/04/21 12:13:36;;;;;;;9.85;4.20;;;18.10;70.70;;;;;;4739096;30;20118;-60
2022/04/21 12:16:03;;;;;;;7.88;3.88;;;18.20;58.40;;;;;;4745514;30;20142;-60
2022/04/21 12:18:47;;;;;;;11.07;3.70;;;18.10;48.90;;;;;;4749290;30;20490;-60
2022/04/21 12:21:13;;;;;;;8.15;4.13;;;17.90;71.30;;;;;;4744356;30;20076;-60
2022/04/21 12:23:38;;;;;;;8.63;4.05;;;17.80;71.20;;;;;;4735219;30;20494;-60
2022/04/21 12:26:07;;;;;;;8.45;3.92;;;17.50;71.40;;;;;;4717069;30;20056;-60
2022/04/21 12:28:47;;;;;;;9.65;4.05;;;17.70;50.40;;;;;;4714927;30;20469;-60
2022/04/21 12:31:13;;;;;;;8.77;4.47;;;;;;;;;;4744093;30;20509;-60
2022/04/21 12:33:42;;;;;;;4.75;4.10;;;17.50;50.70;;;;;;4746748;30;20048;-60
2022/04/21 12:36:08;;;;;;;9.77;4.20;;;17.20;71.60;;;;;;4736056;30;20489;-60
2022/04/21 12:39:12;;;;;;;7.60;4.30;;;18.10;73.60;;;;;;4738396;30;20089;-61
2022/04/21 12:41:38;;;;;;;10.32;4.32;;;17.80;66.20;;;;;;4751989;30;20457;-61
2022/04/21 12:44:04;;;;;;;10.27;4.30;;;;;;;;;;4748082;30;20052;-60
2022/04/21 12:46:32;;;;;;;10.98;4.30;;;18.10;58.10;;;;;;4719982;30;20131;-60
2022/04/21 12:48:58;;;;;;;14.77;3.88;;;18.30;71.60;;;;;;4761590;30;20094;-60
2022/04/21 12:51:25;;;;;;;9.52;3.95;;;18.20;72.40;;;;;;4753993;30;20530;-60
2022/04/21 12:53:58;;;;;;;11.40;4.40;;;18.50;71.30;;;;;;4733859;30;20254;-60
2022/04/21 12:56:35;;;;;;;11.25;4.45;;;17.80;70.60;;;;;;4742910;30;20058;-60
2022/04/21 12:59:02;;;;;;;13.32;4.47;;;17.70;71.50;;;;;;4745933;30;20134;-60
2022/04/21 13:01:28;;;;;;;8.85;4.22;;;18.50;55.00;;;;;;4728722;30;20121;-60
2022/04/21 13:03:57;;;;;;;9.98;4.30;;;17.70;71.40;;;;;;4721364;30;20052;-60
2022/04/21 13:06:30;;;;;;;6.20;3.97;;;17.80;72.50;;;;;;4736733;30;20060;-60
2022/04/21 13:08:57;;;;;;;9.30;3.78;;;19.00;51.10;;;;;;4722205;30;20107;-60
2022/04/21 13:11:23;;;;;;;11.80;3.75;;;18.50;50.60;;;;;;4751267;30;20060;-60
2022/04/21 13:13:51;;;;;;;12.20;4.40;;;18.70;63.00;;;;;;4749756;30;20044;-61
2022/04/21 13:16:18;;;;;;;7.18;4.03;;;19.00;71.50;;;;;;4741192;30;20052;-60
2022/04/21 13:18:44;;;;;;;9.07;3.80;;;18.90;69.90;;;;;;4750245;30;20044;-60
2022/04/21 13:23:55;;;;;;;7.03;3.95;;;19.00;69.60;;;;;;4735138;30;20079;-60
2022/04/21 13:26:24;;;;;;;8.00;4.22;;;18.90;50.30;;;;;;4737621;30;20550;-60
2022/04/21 13:28:50;;;;;;;10.15;3.80;;;18.90;70.40;;;;;;4734456;30;20052;-60
2022/04/21 13:34:02;;;;;;;10.95;4.68;;;;;;;;;;4738576;30;20051;-60
2022/04/21 13:36:28;;;;;;;6.40;4.05;;;;;;;;;;4748783;30;20048;-61
2022/04/21 13:38:54;;;;;;;8.65;3.97;;;18.90;66.70;;;;;;4750351;30;20067;-60
2022/04/21 13:41:20;;;;;;;7.60;4.45;;;;;;;;;;4720049;30;20517;-60
2022/04/21 13:43:46;;;;;;;11.20;4.32;;;;;;;;;;4750337;30;20048;-61
2022/04/21 13:46:12;;;;;;;14.27;4.10;;;;;;;;;;4745723;30;20056;-60
2022/04/21 13:48:38;;;;;;;10.80;4.30;;;;;;;;;;4722012;30;20499;-60
2022/04/21 13:51:05;;;;;;;9.93;4.05;;;;;;;;;;4750713;30;20054;-60
2022/04/21 13:53:31;;;;;;;8.93;4.07;;;18.90;70.80;;;;;;4757804;30;20102;-60
2022/04/21 13:55:57;;;;;;;9.48;4.18;;;19.00;70.00;;;;;;4743571;30;20064;-60
2022/04/21 13:58:23;;;;;;;7.82;4.28;;;19.10;67.60;;;;;;4734627;30;20351;-60
2022/04/21 14:00:49;;;;;;;9.52;4.50;;;;;;;;;;4747911;30;20150;-60
2022/04/21 14:03:15;;;;;;;11.75;5.05;;;18.90;71.50;;;;;;4750444;30;20059;-60
2022/04/21 14:05:41;;;;;;;8.20;4.97;;;18.90;64.50;;;;;;4742300;30;20052;-60
2022/04/21 14:08:11;;;;;;;7.40;4.63;;;18.80;50.20;;;;;;4737084;30;20055;-60
2022/04/21 14:10:38;;;;;;;11.18;4.50;;;;;;;;;;4745291;30;20060;-61
2022/04/21 14:13:04;;;;;;;9.70;4.53;;;19.10;50.50;;;;;;4734149;30;20501;-60
2022/04/21 14:15:30;;;;;;;6.97;4.13;;;19.10;71.60;;;;;;4746716;30;20129;-60
2022/04/21 14:17:56;;;;;;;23.08;4.72;;;19.20;70.90;;;;;;4743668;30;20060;-60
2022/04/21 14:20:22;;;;;;;9.27;4.35;;;;;;;;;;4735383;30;20052;-60
2022/04/21 14:22:48;;;;;;;9.15;4.43;;;19.10;70.20;;;;;;4743367;30;20153;-60
2022/04/21 14:25:14;;;;;;;11.48;4.10;;;;;;;;;;4738509;30;20095;-60
2022/04/21 14:27:40;;;;;;;8.88;4.20;;;19.10;69.60;;;;;;4732787;30;20386;-60
2022/04/21 14:30:06;;;;;;;10.95;4.32;;;19.40;69.60;;;;;;4725408;30;20052;-60
2022/04/21 14:32:32;;;;;;;5.97;3.90;;;19.40;61.40;;;;;;4749516;30;20052;-60
2022/04/21 14:34:58;;;;;;;12.98;4.40;;;19.40;70.10;;;;;;4727110;30;20125;-60
2022/04/21 14:45:38;;;;;;;10.77;4.75;;;;;;;;;;4745258;30;20386;-60
2022/04/21 14:48:04;;;;;;;18.02;4.55;;;19.40;49.40;;;;;;4741094;30;20056;-61
2022/04/21 14:50:30;;;;;;;12.93;4.05;;;;;;;;;;4727644;30;20139;-60
2022/04/21 14:52:57;;;;;;;10.65;4.10;;;19.40;69.10;;;;;;4735034;30;20588;-60
2022/04/21 14:55:24;;;;;;;29.75;4.40;;;19.60;50.70;;;;;;4733112;30;20055;-60
2022/04/21 14:57:50;;;;;;;13.75;4.50;;;;;;;;;;4746514;30;20462;-60
2022/04/21 15:00:16;;;;;;;12.35;4.30;;;19.70;68.90;;;;;;4746633;30;20062;-60
2022/04/21 15:02:42;;;;;;;11.93;4.75;;;;;;;;;;4715846;30;20065;-61
2022/04/21 15:05:08;;;;;;;10.68;4.40;;;;;;;;;;4710283;30;20132;-60
2022/04/21 15:07:34;;;;;;;17.27;4.60;;;;;;;;;;4728617;30;20053;-60
2022/04/21 15:10:00;;;;;;;8.95;4.20;;;19.50;68.90;;;;;;4723495;30;20180;-60
2022/04/21 15:12:26;;;;;;;8.93;4.32;;;;;;;;;;4730687;30;20131;-60
2022/04/21 15:14:52;;;;;;;6.93;4.45;;;19.60;69.30;;;;;;4733671;30;20056;-60
2022/04/21 15:17:18;;;;;;;10.73;4.32;;;19.00;68.90;;;;;;4733171;30;20044;-60
2022/04/21 15:19:46;;;;;;;6.55;4.30;;;19.20;69.30;;;;;;4733172;30;20044;-61
2022/04/21 15:22:12;;;;;;;7.28;4.53;;;19.20;69.60;;;;;;4733410;30;20056;-60
2022/04/21 15:24:38;;;;;;;13.10;4.72;;;;;;;;;;4729799;30;20064;-62
2022/04/21 15:27:06;;;;;;;10.57;4.45;;;;;;;;;;4719424;30;20053;-60
2022/04/21 15:29:32;;;;;;;7.20;4.60;;;;;;;;;;4736693;30;20496;-60
2022/04/21 15:31:58;;;;;;;6.43;4.90;;;19.10;70.40;;;;;;4741181;30;20051;-60
2022/04/21 15:34:23;;;;;;;8.48;5.25;;;18.90;68.70;;;;;;4739510;30;20052;-60
2022/04/21 15:36:49;;;;;;;9.63;5.00;;;19.00;72.50;;;;;;4717125;30;20053;-60
2022/04/21 15:39:15;;;;;;;10.23;5.57;;;19.40;72.40;;;;;;4733391;30;20061;-60
2022/04/21 15:41:41;;;;;;;12.95;5.20;;;18.50;73.20;;;;;;4731757;30;20125;-60
2022/04/21 15:44:07;;;;;;;7.30;5.30;;;;;;;;;;4732023;30;20494;-60
2022/04/21 15:46:33;;;;;;;14.85;5.10;;;;;;;;;;4705685;30;20053;-60
2022/04/21 15:48:58;;;;;;;13.05;5.65;;;17.50;72.70;;;;;;4703385;30;20067;-60
2022/04/21 15:51:25;;;;;;;11.98;5.63;;;18.10;73.50;;;;;;4722957;30;20153;-60
2022/04/21 15:59:20;;;;;;;16.63;5.53;;;18.10;75.60;;;;;;4702338;30;20572;-60
2022/04/21 16:01:47;;;;;;;9.75;5.78;;;18.20;75.00;;;;;;4727901;30;20060;-60
2022/04/21 16:04:13;;;;;;;13.35;5.32;;;;;;;;;;4744042;30;20059;-60
2022/04/21 16:06:39;;;;;;;8.43;5.22;;;18.50;75.80;;;;;;4725928;30;20048;-60
2022/04/21 16:09:05;;;;;;;8.93;5.38;;;18.10;76.60;;;;;;4747177;30;20063;-60
2022/04/21 16:11:31;;;;;;;9.77;5.10;;;;;;;;;;4733735;30;20146;-60
2022/04/21 16:13:57;;;;;;;15.55;5.22;;;17.80;75.90;;;;;;4747335;30;20052;-60
2022/04/21 16:16:27;;;;;;;12.30;5.50;;;17.40;76.90;;;;;;4725578;30;20122;-60
2022/04/21 16:18:54;;;;;;;9.77;5.53;;;;;;;;;;4738338;30;20088;-60
2022/04/21 16:21:20;;;;;;;9.27;5.00;;;17.80;76.80;;;;;;4749180;30;20130;-60
2022/04/21 16:23:46;;;;;;;12.07;5.25;;;17.60;74.50;;;;;;4745803;30;20054;-61
2022/04/21 16:26:12;;;;;;;10.18;5.60;;;;;;;;;;4726534;30;20040;-60
2022/04/21 16:28:38;;;;;;;10.77;5.40;;;18.20;78.20;;;;;;4751766;30;20055;-60
2022/04/21 16:31:05;;;;;;;12.45;5.55;;;;;;;;;;4743764;30;20502;-60
2022/04/21 16:33:31;;;;;;;9.98;5.47;;;17.00;77.80;;;;;;4750448;30;20493;-60
2022/04/21 16:35:56;;;;;;;9.73;5.68;;;17.30;79.90;;;;;;4752428;30;20049;-60
2022/04/21 16:38:22;;;;;;;8.88;4.93;;;;;;;;;;4746187;30;20052;-60
2022/04/21 16:40:49;;;;;;;11.88;6.00;;;;;;;;;;4749010;30;20056;-60
2022/04/21 16:43:14;;;;;;;8.85;5.72;;;17.50;79.70;;;;;;4750831;30;20052;-60
2022/04/21 16:45:42;;;;;;;16.88;5.25;;;;;;;;;;4743595;30;20052;-60
2022/04/21 16:48:08;;;;;;;9.35;5.20;;;;;;;;;;4749145;30;20140;-60
2022/04/21 16:50:34;;;;;;;8.77;5.15;;;16.70;81.30;;;;;;4736041;30;20047;-60
2022/04/21 16:53:01;;;;;;;11.85;5.20;;;;;;;;;;4745512;30;20106;-60
2022/04/21 16:55:26;;;;;;;14.50;5.25;;;16.80;82.50;;;;;;4748302;30;20052;-60
2022/04/21 16:57:52;;;;;;;14.05;4.90;;;;;;;;;;4743195;30;20056;-60
2022/04/21 17:02:54;;;;;;;13.95;4.88;;;17.10;82.80;;;;;;4739466;30;20053;-60
2022/04/21 17:03:05;;;;;;;11.93;5.68;;;16.70;78.30;;;;;;4740421;30;20090;-60
2022/04/21 17:05:31;;;;;;;11.75;5.32;;;15.70;65.20;;;;;;4744523;30;20040;-60
2022/04/21 17:07:57;;;;;;;13.07;5.15;;;16.70;82.70;;;;;;4737972;30;20071;-60
2022/04/21 17:10:22;;;;;;;13.63;5.07;;;16.80;62.40;;;;;;4738912;30;20056;-60
2022/04/21 17:12:48;;;;;;;13.65;6.25;;;16.70;86.20;;;;;;4743156;30;20060;-60
2022/04/21 17:15:14;;;;;;;13.15;6.32;;;16.50;88.30;;;;;;4721994;30;20114;-60
2022/04/21 17:17:41;;;;;;;13.73;6.85;;;16.40;90.40;;;;;;4740580;30;20100;-60
2022/04/21 17:20:08;;;;;;;12.80;6.90;;;15.60;78.70;;;;;;4746563;30;20056;-60
2022/04/21 17:22:34;;;;;;;9.20;6.47;;;16.10;92.60;;;;;;4748095;30;20050;-60
2022/04/21 17:25:00;;;;;;;11.65;6.88;;;16.40;93.10;;;;;;4727396;30;20056;-58
2022/04/21 17:27:26;;;;;;;12.68;6.80;;;15.50;94.00;;;;;;4738337;30;20160;-58
2022/04/21 17:29:52;;;;;;;8.38;6.95;;;16.10;94.50;;;;;;4722823;30;20060;-58
2022/04/21 17:32:18;;;;;;;15.07;7.68;;;;;;;;;;4725068;30;20075;-58
2022/04/21 17:34:45;;;;;;;8.25;6.40;;;15.70;94.40;;;;;;4741844;30;20060;-58
2022/04/21 17:37:11;;;;;;;9.48;6.97;;;;;;;;;;4741879;30;20378;-58
2022/04/21 17:39:37;;;;;;;14.38;7.57;;;15.70;90.30;;;;;;4735988;30;20482;-58
2022/04/21 17:42:05;;;;;;;8.90;7.07;;;15.40;86.50;;;;;;4743626;30;20051;-58
2022/04/21 17:44:31;;;;;;;13.10;7.63;;;15.40;97.10;;;;;;4746944;30;20052;-58
2022/04/21 17:46:57;;;;;;;11.35;7.25;;;16.00;97.00;;;;;;4751873;30;20649;-58
2022/04/21 17:49:23;;;;;;;11.93;7.05;;;15.60;97.20;;;;;;4752483;30;20044;-58
2022/04/21 17:51:49;;;;;;;15.55;7.70;;;16.00;97.60;;;;;;4752285;30;20560;-58
2022/04/21 17:54:16;;;;;;;12.65;7.90;;;15.80;98.70;;;;;;4751687;30;20568;-58
2022/04/21 17:56:42;;;;;;;16.60;7.82;;;15.40;96.00;;;;;;4751937;30;20052;-58
2022/04/21 17:59:08;;;;;;;13.10;7.88;;;14.80;99.90;;;;;;4752151;30;20052;-58
2022/04/21 18:01:35;;;;;;;11.77;8.05;;;;;;;;;;4752005;30;20106;-58
2022/04/21 18:04:00;;;;;;;11.30;7.70;;;15.30;99.90;;;;;;4752522;30;20134;-58
2022/04/21 18:06:26;;;;;;;11.15;8.13;;;14.90;99.90;;;;;;4752141;30;20505;-58
2022/04/21 18:08:52;;;;;;;12.63;7.72;;;15.20;99.90;;;;;;4735673;30;20060;-58
2022/04/21 18:11:19;;;;;;;11.75;7.78;;;;;;;;;;4752059;30;20421;-58
2022/04/21 18:13:47;;;;;;;13.90;7.85;;;15.00;99.70;;;;;;4735764;30;20055;-58
2022/04/21 18:16:13;;;;;;;14.48;7.80;;;15.10;99.90;;;;;;4736168;30;20060;-58
2022/04/21 18:18:39;;;;;;;11.45;8.10;;;14.90;99.90;;;;;;4767095;30;20052;-58
2022/04/21 18:21:06;;;;;;;12.50;8.23;;;;;;;;;;4753860;30;20059;-60
2022/04/21 18:23:32;;;;;;;12.00;8.35;;;;;;;;;;4769473;30;20058;-58
2022/04/21 18:25:58;;;;;;;12.43;8.70;;;14.80;99.90;;;;;;4753433;30;20077;-58
2022/04/21 18:28:23;;;;;;;14.40;8.23;;;14.50;99.90;;;;;;4753041;30;20060;-58
2022/04/21 18:30:52;;;;;;;13.27;8.60;;;14.60;99.90;;;;;;4769367;30;20087;-57
2022/04/21 18:33:17;;;;;;;11.32;8.25;;;15.10;99.90;;;;;;4753497;30;20135;-58
2022/04/21 18:35:43;;;;;;;14.40;8.07;;;14.30;99.90;;;;;;4769499;30;20126;-59
2022/04/21 18:38:09;;;;;;;10.60;7.88;;;14.30;99.90;;;;;;4753309;30;20055;-59
2022/04/21 18:40:35;;;;;;;13.25;7.65;;;14.50;99.90;;;;;;4768978;30;20063;-58
2022/04/21 18:43:05;;;;;;;14.40;7.95;;;14.40;99.90;;;;;;4753244;30;20635;-59
2022/04/21 18:45:32;;;;;;;15.73;7.78;;;14.20;98.70;;;;;;4753296;30;20070;-59
2022/04/21 18:47:58;;;;;;;10.75;7.97;;;14.30;99.90;;;;;;4759387;30;20405;-58
2022/04/21 18:50:24;;;;;;;12.38;7.60;;;14.30;99.90;;;;;;4751626;30;20446;-59
2022/04/21 18:52:50;;;;;;;10.77;7.65;;;;;;;;;;4751582;30;20127;-58
2022/04/21 18:55:16;;;;;;;15.70;8.02;;;14.10;99.90;;;;;;4750153;30;20407;-59
2022/04/21 19:00:26;;;;;;;13.02;8.13;;;13.80;99.90;;;;;;4751403;30;20545;-59
2022/04/21 19:02:54;;;;;;;11.50;8.27;;;14.00;99.90;;;;;;4751020;30;20087;-57
2022/04/21 19:05:21;;;;;;;9.45;7.47;;;14.00;99.90;;;;;;4735761;30;20064;-59
2022/04/21 19:07:47;;;;;;;13.93;7.95;;;;;;;;;;4735487;30;20056;-58
2022/04/21 19:10:13;;;;;;;12.00;7.53;;;13.90;99.90;;;;;;4734591;30;20080;-59
2022/04/21 19:12:39;;;;;;;12.80;7.85;;;;;;;;;;4750753;30;20083;-59
2022/04/21 19:15:05;;;;;;;14.98;7.35;;;13.80;99.90;;;;;;4751549;30;20083;-59
2022/04/21 19:17:31;;;;;;;11.40;7.47;;;;;;;;;;4744235;30;20071;-58
2022/04/21 19:19:57;;;;;;;9.27;7.35;;;13.50;99.90;;;;;;4718079;30;20063;-58
2022/04/21 19:22:23;;;;;;;12.43;7.47;;;;;;;;;;4740215;30;20052;-58
2022/04/21 19:24:49;;;;;;;14.00;7.55;;;13.80;99.90;;;;;;4745944;30;20055;-58
2022/04/21 19:27:19;;;;;;;14.63;7.57;;;13.70;99.90;;;;;;4734769;30;20048;-58
2022/04/21 19:29:50;;;;;;;11.40;7.40;;;13.70;99.90;;;;;;4750977;30;20138;-57
2022/04/21 19:32:19;;;;;;;8.57;7.18;;;13.70;99.90;;;;;;4735177;30;20064;-58
2022/04/21 19:34:47;;;;;;;11.05;7.07;;;13.60;99.90;;;;;;4735366;30;20131;-57
2022/04/21 19:37:12;;;;;;;11.65;7.30;;;13.60;99.90;;;;;;4735102;30;20406;-58
2022/04/21 19:39:39;;;;;;;14.57;6.88;;;;;;;;;;4733627;30;20052;-58
2022/04/21 19:42:11;;;;;;;14.05;7.40;;;13.60;99.90;;;;;;4710726;30;20056;-58
2022/04/21 19:44:37;;;;;;;9.98;6.57;;;13.70;99.90;;;;;;4733330;30;20048;-58
2022/04/21 19:47:03;;;;;;;10.00;6.72;;;13.60;99.90;;;;;;4733357;30;20045;-57
2022/04/21 19:49:29;;;;;;;8.68;6.50;;;13.70;99.90;;;;;;4717661;30;20399;-58
2022/04/21 19:51:55;;;;;;;8.57;6.28;;;13.80;99.90;;;;;;4720389;30;20059;-58
2022/04/21 19:54:20;;;;;;;17.55;6.20;;;14.00;99.90;;;;;;4736543;30;20045;-58
2022/04/21 19:56:49;;;;;;;10.75;5.50;;;13.80;99.90;;;;;;4737079;30;20052;-57
2022/04/21 19:59:19;;;;;;;7.65;5.43;;;13.80;99.90;;;;;;4733308;30;20256;-58
2022/04/21 20:01:44;;;;;;;8.95;4.88;;;14.00;99.90;;;;;;4741846;30;20126;-58
2022/04/21 20:04:11;;;;;;;7.15;4.65;;;;;;;;;;4750842;30;20052;-58